Time;durP1;ratioP1;P1;durP2;ratioP2;P2;SDS_P1;SDS_P2;PMS_P1;PMS_P2;Temp;Humidity;BMP_temperature;BMP_pressure;BME280_temperature;BME280_humidity;BME280_pressure;Samples;Min_cycle;Max_cycle;Signal;HPM_P1;HPM_P2
2023/10/27 00:00:52;;;;;;;9.23;6.17;;;7.80;99.90;7.00;98333;;;;588481;240;24057;-78
2023/10/27 00:03:20;;;;;;;8.77;5.47;;;7.80;99.90;7.00;98337;;;;587997;240;24085;-76
2023/10/27 00:05:48;;;;;;;6.67;5.77;;;7.70;99.90;7.00;98329;;;;587579;240;24041;-76
2023/10/27 00:08:16;;;;;;;5.90;5.20;;;7.80;99.90;7.00;98335;;;;588413;240;24055;-77
2023/10/27 00:10:44;;;;;;;6.93;5.73;;;7.80;99.90;7.00;98342;;;;588448;240;24086;-77
2023/10/27 00:13:12;;;;;;;8.33;5.67;;;7.70;99.90;7.00;98339;;;;588396;240;24041;-77
2023/10/27 00:15:40;;;;;;;6.80;5.50;;;7.80;99.90;7.00;98342;;;;588672;240;24053;-77
2023/10/27 00:18:08;;;;;;;7.40;6.03;;;7.80;99.90;7.00;98342;;;;588396;240;24115;-78
2023/10/27 00:20:35;;;;;;;6.67;5.37;;;7.80;99.90;7.00;98337;;;;588015;240;24043;-78
2023/10/27 00:23:04;;;;;;;7.33;5.73;;;7.80;99.90;7.10;98335;;;;588272;240;24092;-77
2023/10/27 00:25:32;;;;;;;8.20;6.13;;;7.80;99.90;7.10;98335;;;;587917;240;24043;-77
2023/10/27 00:28:01;;;;;;;8.23;5.53;;;7.90;99.90;7.10;98342;;;;587909;240;24116;-78
2023/10/27 00:30:29;;;;;;;7.30;5.33;;;7.90;99.90;7.10;98335;;;;588028;240;24051;-77
2023/10/27 00:32:57;;;;;;;6.70;5.23;;;7.90;99.90;7.10;98336;;;;588134;240;24148;-77
2023/10/27 00:35:25;;;;;;;6.63;4.40;;;7.90;99.90;7.10;98334;;;;587560;240;24072;-80
2023/10/27 00:37:53;;;;;;;3.73;3.30;;;7.90;99.90;7.00;98330;;;;587795;240;24072;-78
2023/10/27 00:40:21;;;;;;;6.07;3.67;;;7.90;99.90;7.00;98335;;;;587385;240;24119;-77
2023/10/27 00:42:49;;;;;;;3.50;3.20;;;7.80;99.90;7.00;98330;;;;587712;240;24033;-76
2023/10/27 00:45:17;;;;;;;5.03;3.90;;;7.80;99.90;7.00;98325;;;;588070;240;24033;-77
2023/10/27 00:47:45;;;;;;;5.53;4.37;;;7.80;99.90;7.00;98323;;;;587895;240;24072;-78
2023/10/27 00:50:13;;;;;;;9.10;4.60;;;7.70;99.90;6.90;98313;;;;588569;240;24111;-77
2023/10/27 00:52:45;;;;;;;5.07;4.30;;;7.70;99.90;6.90;98321;;;;588178;240;24142;-77
2023/10/27 00:55:09;;;;;;;5.33;4.17;;;7.70;99.90;6.90;98317;;;;587765;240;24062;-78
2023/10/27 00:57:37;;;;;;;5.30;4.20;;;7.70;99.90;6.90;98320;;;;588072;240;24055;-82
2023/10/27 01:00:07;;;;;;;4.37;3.80;;;7.70;99.90;6.90;98326;;;;587598;240;24087;-78
2023/10/27 01:02:33;;;;;;;4.77;3.87;;;7.70;99.90;6.90;98316;;;;588525;238;24089;-76
2023/10/27 01:05:01;;;;;;;5.47;3.10;;;7.70;99.90;6.90;98317;;;;588838;240;24048;-81
2023/10/27 01:07:30;;;;;;;3.43;2.83;;;7.70;99.90;6.90;98319;;;;588174;239;24039;-82
2023/10/27 01:10:00;;;;;;;2.77;2.20;;;7.70;99.90;6.90;98328;;;;587831;240;24142;-82
2023/10/27 01:12:26;;;;;;;1.83;1.70;;;7.70;99.90;6.90;98311;;;;587553;240;24072;-80
2023/10/27 01:14:54;;;;;;;1.90;1.80;;;7.70;99.90;6.80;98313;;;;587617;240;24269;-81
2023/10/27 01:17:22;;;;;;;1.53;1.43;;;7.60;99.90;6.80;98306;;;;587555;240;24040;-81
2023/10/27 01:19:50;;;;;;;2.27;2.07;;;7.60;99.90;6.70;98305;;;;587680;240;24037;-80
2023/10/27 01:22:18;;;;;;;1.90;1.80;;;7.50;99.90;6.70;98312;;;;587360;240;24047;-78
2023/10/27 01:24:46;;;;;;;2.47;1.60;;;7.50;99.90;6.60;98318;;;;587488;240;24072;-82
2023/10/27 01:27:14;;;;;;;1.70;1.60;;;7.40;99.90;6.60;98317;;;;587465;240;24033;-81
2023/10/27 01:29:41;;;;;;;2.97;2.03;;;7.40;99.90;6.60;98314;;;;587450;240;24060;-82
2023/10/27 01:32:09;;;;;;;2.20;2.10;;;7.40;99.90;6.60;98314;;;;588033;240;24048;-83
2023/10/27 01:34:37;;;;;;;2.27;2.17;;;7.40;99.90;6.60;98324;;;;588260;240;24129;-79
2023/10/27 01:37:05;;;;;;;2.50;2.30;;;7.40;99.90;6.60;98328;;;;588767;240;24091;-79
2023/10/27 01:39:33;;;;;;;2.50;2.40;;;7.40;99.90;6.60;98316;;;;587768;240;24111;-81
2023/10/27 01:42:02;;;;;;;2.63;2.43;;;7.40;99.90;6.60;98309;;;;596722;238;24075;-83
2023/10/27 01:44:30;;;;;;;5.00;3.13;;;7.40;99.90;6.70;98315;;;;587421;240;24038;-81
2023/10/27 01:47:00;;;;;;;3.30;3.00;;;7.40;99.90;6.70;98303;;;;587550;240;24072;-81
2023/10/27 01:49:28;;;;;;;3.27;3.07;;;7.40;99.90;6.60;98312;;;;587240;240;24139;-80
2023/10/27 01:51:53;;;;;;;3.43;3.23;;;7.40;99.90;6.70;98298;;;;587316;240;24042;-82
2023/10/27 01:54:21;;;;;;;3.57;3.33;;;7.40;99.90;6.70;98299;;;;587464;240;24053;-82
2023/10/27 01:56:49;;;;;;;3.30;3.00;;;7.40;99.90;6.70;98312;;;;587426;240;24018;-79
2023/10/27 01:59:17;;;;;;;2.90;2.70;;;7.50;99.90;6.70;98305;;;;587402;240;24018;-81
2023/10/27 02:01:45;;;;;;;3.43;3.13;;;7.50;99.90;6.70;98297;;;;587408;240;24026;-80
2023/10/27 02:04:13;;;;;;;2.60;2.43;;;7.50;99.90;6.70;98299;;;;587452;240;24026;-79
2023/10/27 02:06:44;;;;;;;2.80;2.70;;;7.40;99.90;6.70;98304;;;;587437;240;24033;-77
2023/10/27 02:09:09;;;;;;;2.80;2.60;;;7.40;99.90;6.60;98295;;;;586766;240;24048;-77
2023/10/27 02:11:36;;;;;;;3.70;2.93;;;7.40;99.90;6.60;98296;;;;586961;240;24088;-77
2023/10/27 02:14:04;;;;;;;3.53;3.20;;;7.40;99.90;6.60;98297;;;;587479;238;24070;-77
2023/10/27 02:16:32;;;;;;;4.47;3.33;;;7.40;99.90;6.60;98296;;;;588537;240;24031;-76
2023/10/27 02:19:01;;;;;;;4.77;3.97;;;7.40;99.90;6.60;98290;;;;588380;240;24054;-76
2023/10/27 02:21:29;;;;;;;4.40;4.00;;;7.40;99.90;6.60;98299;;;;588197;240;24046;-79
2023/10/27 02:23:57;;;;;;;4.17;3.77;;;7.40;99.90;6.60;98302;;;;588376;240;24058;-77
2023/10/27 02:26:25;;;;;;;3.63;3.33;;;7.40;99.90;6.60;98294;;;;587796;240;24048;-77
2023/10/27 02:28:55;;;;;;;3.90;3.60;;;7.40;99.90;6.60;98290;;;;588148;240;24050;-80
2023/10/27 02:31:21;;;;;;;3.83;3.53;;;7.40;99.90;6.60;98301;;;;588023;240;24063;-82
2023/10/27 02:33:50;;;;;;;5.30;3.60;;;7.40;99.90;6.60;98295;;;;588270;240;24094;-77
2023/10/27 02:36:17;;;;;;;3.40;3.20;;;7.40;99.90;6.60;98296;;;;587936;240;24040;-77
2023/10/27 02:38:45;;;;;;;4.67;4.07;;;7.40;99.90;6.70;98296;;;;587647;240;24040;-76
2023/10/27 02:41:13;;;;;;;4.13;3.73;;;7.40;99.90;6.70;98286;;;;587607;240;24095;-76
2023/10/27 02:43:41;;;;;;;5.77;3.73;;;7.40;99.90;6.70;98291;;;;588301;240;24071;-76
2023/10/27 02:46:12;;;;;;;4.40;3.97;;;7.40;99.90;6.70;98293;;;;587823;240;24051;-77
2023/10/27 02:48:42;;;;;;;4.97;4.47;;;7.40;99.90;6.70;98286;;;;588216;240;24059;-77
2023/10/27 02:51:06;;;;;;;2.50;2.33;;;7.40;99.90;6.70;98274;;;;582884;240;24054;-78
2023/10/27 02:53:35;;;;;;;3.30;3.00;;;7.40;99.90;6.60;98270;;;;587680;240;24040;-76
2023/10/27 02:56:05;;;;;;;4.17;2.53;;;7.40;99.90;6.60;98259;;;;587581;240;24041;-76
2023/10/27 02:58:37;;;;;;;3.03;2.73;;;7.40;99.90;6.60;98256;;;;586491;240;24060;-75
2023/10/27 03:01:01;;;;;;;3.30;2.20;;;7.30;99.90;6.50;98246;;;;586721;240;24077;-77
2023/10/27 03:03:32;;;;;;;3.83;2.70;;;7.30;99.90;6.40;98253;;;;587145;240;24050;-77
2023/10/27 03:05:57;;;;;;;4.20;2.27;;;7.20;99.90;6.40;98253;;;;587114;240;24098;-77
2023/10/27 03:08:25;;;;;;;2.57;2.33;;;7.20;99.90;6.40;98260;;;;587361;240;24022;-79
2023/10/27 03:10:53;;;;;;;2.90;2.70;;;7.20;99.90;6.40;98258;;;;587303;240;24041;-77
2023/10/27 03:13:24;;;;;;;2.57;2.10;;;7.20;99.90;6.50;98263;;;;587364;240;24056;-77
2023/10/27 03:15:49;;;;;;;7.10;2.70;;;7.20;99.90;6.50;98260;;;;596293;238;24043;-77
2023/10/27 03:18:21;;;;;;;3.00;2.40;;;7.30;99.90;6.50;98266;;;;587349;240;24061;-76
2023/10/27 03:20:45;;;;;;;2.50;2.30;;;7.30;99.90;6.50;98265;;;;586871;240;24077;-76
2023/10/27 03:23:13;;;;;;;2.77;2.43;;;7.20;99.90;6.50;98272;;;;587282;240;24037;-76
2023/10/27 03:25:41;;;;;;;2.30;2.10;;;7.30;99.90;6.50;98275;;;;587688;238;24052;-76
2023/10/27 03:28:12;;;;;;;2.50;2.30;;;7.30;99.90;6.50;98271;;;;588780;239;24031;-77
2023/10/27 03:30:37;;;;;;;2.57;2.37;;;7.30;99.90;6.50;98264;;;;587893;240;24088;-76
2023/10/27 03:33:04;;;;;;;2.73;2.50;;;7.30;99.90;6.40;98257;;;;588186;240;24077;-76
2023/10/27 03:35:32;;;;;;;2.77;2.30;;;7.20;99.90;6.40;98267;;;;587988;240;24059;-76
2023/10/27 03:38:04;;;;;;;2.43;2.10;;;7.20;99.90;6.40;98267;;;;587990;240;24068;-76
2023/10/27 03:40:28;;;;;;;2.70;2.30;;;7.20;99.90;6.40;98262;;;;586851;240;24056;-77
2023/10/27 03:42:57;;;;;;;4.10;2.60;;;7.20;99.90;6.40;98260;;;;587560;240;24040;-77
2023/10/27 03:45:25;;;;;;;2.70;2.50;;;7.20;99.90;6.40;98259;;;;587173;240;24025;-77
2023/10/27 03:47:53;;;;;;;4.40;2.50;;;7.20;99.90;6.40;98262;;;;587392;240;24041;-77
2023/10/27 03:50:24;;;;;;;2.50;2.30;;;7.20;99.90;6.40;98260;;;;587187;240;24052;-76
2023/10/27 03:52:48;;;;;;;3.57;3.27;;;7.20;99.90;6.40;98262;;;;586649;240;24037;-76
2023/10/27 03:55:17;;;;;;;4.17;3.87;;;7.20;99.90;6.40;98258;;;;587304;240;24054;-76
2023/10/27 03:57:48;;;;;;;4.33;3.93;;;7.20;99.90;6.40;98251;;;;587189;240;24018;-76
2023/10/27 04:00:17;;;;;;;4.87;4.47;;;7.20;99.90;6.40;98254;;;;586901;240;24054;-76
2023/10/27 04:02:45;;;;;;;4.00;3.70;;;7.20;99.90;6.40;98257;;;;586367;240;24021;-77
2023/10/27 04:05:09;;;;;;;4.17;3.77;;;7.20;99.90;6.40;98262;;;;586427;240;24050;-76
2023/10/27 04:07:38;;;;;;;3.73;3.43;;;7.20;99.90;6.40;98254;;;;586965;240;24083;-76
2023/10/27 04:10:06;;;;;;;3.63;3.33;;;7.20;99.90;6.40;98258;;;;586833;240;24047;-77
2023/10/27 04:12:34;;;;;;;4.80;3.77;;;7.20;99.90;6.40;98251;;;;587337;240;24049;-77
2023/10/27 04:15:05;;;;;;;4.53;3.60;;;7.20;99.90;6.40;98254;;;;587235;240;24046;-77
2023/10/27 04:17:30;;;;;;;4.13;3.37;;;7.20;99.90;6.40;98248;;;;582073;240;24032;-76
2023/10/27 04:19:58;;;;;;;3.83;3.47;;;7.20;99.90;6.40;98252;;;;587315;240;24077;-77
2023/10/27 04:22:25;;;;;;;3.50;3.20;;;7.20;99.90;6.40;98251;;;;587272;240;24030;-76
2023/10/27 04:24:54;;;;;;;3.63;3.33;;;7.20;99.90;6.50;98256;;;;587299;240;24047;-78
2023/10/27 04:27:21;;;;;;;4.63;4.23;;;7.20;99.90;6.40;98248;;;;587163;240;24035;-78
2023/10/27 04:29:53;;;;;;;3.73;3.40;;;7.20;99.90;6.40;98257;;;;587340;240;24091;-76
2023/10/27 04:32:18;;;;;;;3.10;2.90;;;7.20;99.90;6.40;98254;;;;581653;240;24096;-77
2023/10/27 04:34:46;;;;;;;4.00;3.10;;;7.20;99.90;6.40;98249;;;;587293;240;24033;-76
2023/10/27 04:37:14;;;;;;;3.17;2.97;;;7.20;99.90;6.40;98251;;;;587632;238;24049;-78
2023/10/27 04:39:42;;;;;;;3.27;2.97;;;7.20;99.90;6.40;98253;;;;588762;239;24089;-78
2023/10/27 04:42:09;;;;;;;2.73;2.53;;;7.20;99.90;6.30;98256;;;;588132;240;24060;-79
2023/10/27 04:44:37;;;;;;;3.00;2.80;;;7.20;99.90;6.30;98257;;;;587661;240;24108;-77
2023/10/27 04:47:06;;;;;;;3.80;3.27;;;7.10;99.90;6.30;98258;;;;587686;240;24043;-76
2023/10/27 04:49:34;;;;;;;8.27;3.40;;;7.10;99.90;6.30;98263;;;;587455;240;24099;-79
2023/10/27 04:52:02;;;;;;;3.40;3.10;;;7.10;99.90;6.40;98258;;;;587573;240;24056;-77
2023/10/27 04:54:30;;;;;;;2.97;2.77;;;7.20;99.90;6.40;98264;;;;587528;240;24018;-76
2023/10/27 04:57:01;;;;;;;2.77;2.57;;;7.10;99.90;6.30;98257;;;;587146;240;24046;-76
2023/10/27 04:59:25;;;;;;;3.73;2.60;;;7.10;99.90;6.30;98256;;;;587035;240;24089;-82
2023/10/27 05:01:53;;;;;;;3.00;2.80;;;7.10;99.90;6.30;98251;;;;587255;240;24041;-76
2023/10/27 05:04:21;;;;;;;3.10;2.90;;;7.10;99.90;6.20;98251;;;;587388;240;24025;-82
2023/10/27 05:06:49;;;;;;;2.80;2.60;;;7.00;99.90;6.20;98250;;;;587277;240;24072;-82
2023/10/27 05:09:21;;;;;;;3.37;3.00;;;7.00;99.90;6.20;98254;;;;587176;240;24049;-83
2023/10/27 05:11:45;;;;;;;3.23;3.03;;;7.00;99.90;6.30;98256;;;;587087;240;24081;-82
2023/10/27 05:14:18;;;;;;;3.43;3.13;;;7.10;99.90;6.20;98264;;;;587460;240;24053;-77
2023/10/27 05:16:45;;;;;;;4.00;3.60;;;7.00;99.90;6.20;98262;;;;586991;240;24023;-78
2023/10/27 05:19:12;;;;;;;4.27;3.47;;;7.00;99.90;6.20;98261;;;;587267;240;24046;-79
2023/10/27 05:21:40;;;;;;;4.77;4.00;;;7.00;99.90;6.20;98261;;;;587283;240;24100;-76
2023/10/27 05:24:11;;;;;;;4.60;3.70;;;7.00;99.90;6.20;98257;;;;587551;240;24048;-77
2023/10/27 05:26:40;;;;;;;4.83;3.80;;;7.00;99.90;6.30;98266;;;;587177;240;24051;-76
2023/10/27 05:29:05;;;;;;;6.53;4.13;;;7.10;99.90;6.30;98263;;;;587513;240;24041;-79
2023/10/27 05:31:34;;;;;;;4.17;3.77;;;7.10;99.90;6.30;98261;;;;588055;240;24015;-81
2023/10/27 05:34:00;;;;;;;4.03;3.63;;;7.10;99.90;6.30;98263;;;;587831;240;24057;-79
2023/10/27 05:36:28;;;;;;;4.70;3.33;;;7.10;99.90;6.30;98275;;;;582631;240;34997;-77
2023/10/27 05:38:57;;;;;;;2.60;2.30;;;7.10;99.90;6.30;98280;;;;587667;240;24034;-78
2023/10/27 05:41:25;;;;;;;4.00;2.63;;;7.10;99.90;6.30;98286;;;;587563;240;24038;-77
2023/10/27 05:43:54;;;;;;;3.70;2.93;;;7.10;99.90;6.30;98286;;;;586967;240;24050;-82
2023/10/27 05:46:21;;;;;;;2.63;2.40;;;7.10;99.90;6.30;98284;;;;587066;240;24033;-80
2023/10/27 05:48:52;;;;;;;6.60;4.10;;;7.20;99.90;6.30;98284;;;;587329;238;24032;-77
2023/10/27 05:51:17;;;;;;;4.90;4.30;;;7.10;99.90;6.30;98286;;;;588173;239;24059;-79
2023/10/27 05:53:48;;;;;;;5.87;4.80;;;7.20;99.90;6.40;98291;;;;588101;240;24065;-78
2023/10/27 05:56:13;;;;;;;6.27;4.63;;;7.20;99.90;6.40;98290;;;;587584;240;24060;-80
2023/10/27 05:58:41;;;;;;;5.37;4.80;;;7.20;99.90;6.40;98291;;;;587712;239;24029;-81
2023/10/27 06:01:09;;;;;;;8.13;5.20;;;7.20;99.90;6.40;98306;;;;587534;240;24034;-80
2023/10/27 06:03:37;;;;;;;5.03;4.53;;;7.20;99.90;6.40;98299;;;;587615;240;24039;-79
2023/10/27 06:06:06;;;;;;;5.30;4.70;;;7.30;99.90;6.40;98303;;;;587477;240;24085;-81
2023/10/27 06:08:40;;;;;;;5.93;5.00;;;7.20;99.90;6.50;98303;;;;587396;240;24053;-76
2023/10/27 06:11:02;;;;;;;7.63;5.77;;;7.30;99.90;6.60;98301;;;;586857;240;24038;-77
2023/10/27 06:13:30;;;;;;;7.43;5.27;;;7.40;99.90;6.50;98313;;;;587724;240;24126;-81
2023/10/27 06:15:58;;;;;;;7.53;5.20;;;7.30;99.90;6.60;98314;;;;587535;240;24029;-79
2023/10/27 06:18:26;;;;;;;7.07;4.43;;;7.40;99.90;6.60;98317;;;;587478;240;24050;-79
2023/10/27 06:20:54;;;;;;;5.47;4.50;;;7.40;99.90;6.60;98324;;;;587768;240;24039;-77
2023/10/27 06:23:24;;;;;;;7.60;4.80;;;7.40;99.90;6.60;98324;;;;587822;240;24052;-75
2023/10/27 06:25:52;;;;;;;9.63;4.73;;;7.40;99.90;6.70;98325;;;;591357;240;24104;-76
2023/10/27 06:28:25;;;;;;;3.60;3.30;;;7.40;99.90;6.70;98334;;;;587882;240;24166;-78
2023/10/27 06:30:49;;;;;;;3.73;3.30;;;7.50;99.90;6.70;98334;;;;587497;240;24062;-77
2023/10/27 06:33:18;;;;;;;3.30;2.97;;;7.50;99.90;6.70;98341;;;;588002;240;24111;-78
2023/10/27 06:35:49;;;;;;;3.83;2.90;;;7.50;99.90;6.70;98336;;;;587682;240;24058;-77
2023/10/27 06:38:14;;;;;;;7.70;3.37;;;7.50;99.90;6.70;98347;;;;588011;240;25090;-76
2023/10/27 06:40:41;;;;;;;3.97;3.23;;;7.50;99.90;6.70;98347;;;;587905;240;24123;-78
2023/10/27 06:43:09;;;;;;;4.23;3.10;;;7.50;99.90;6.70;98347;;;;587706;240;24069;-79
2023/10/27 06:45:38;;;;;;;4.00;3.60;;;7.50;99.90;6.70;98356;;;;587227;240;24044;-78
2023/10/27 06:48:09;;;;;;;5.17;3.13;;;7.50;99.90;6.70;98359;;;;587490;240;24057;-74
2023/10/27 06:50:41;;;;;;;3.43;3.13;;;7.50;99.90;6.70;98353;;;;588248;240;24084;-79
2023/10/27 06:53:06;;;;;;;4.50;3.53;;;7.50;99.90;6.70;98360;;;;587289;240;24056;-77
2023/10/27 06:55:37;;;;;;;4.17;3.60;;;7.50;99.90;6.70;98364;;;;587261;240;24036;-77
2023/10/27 06:58:05;;;;;;;7.23;3.47;;;7.50;99.90;6.70;98366;;;;587329;240;24059;-76
2023/10/27 07:00:33;;;;;;;4.57;3.23;;;7.50;99.90;6.70;98366;;;;587355;239;24123;-76
2023/10/27 07:03:01;;;;;;;3.90;3.50;;;7.50;99.90;6.70;98367;;;;588639;240;24130;-77
2023/10/27 07:05:29;;;;;;;4.37;3.10;;;7.50;99.90;6.70;98368;;;;588425;240;24106;-76
2023/10/27 07:08:00;;;;;;;4.90;3.73;;;7.50;99.90;6.80;98367;;;;588405;240;24082;-77
2023/10/27 07:10:25;;;;;;;3.77;2.90;;;7.50;99.90;6.80;98369;;;;587613;240;24120;-78
2023/10/27 07:12:55;;;;;;;4.53;3.20;;;7.60;99.90;6.80;98374;;;;587887;240;24118;-79
2023/10/27 07:15:23;;;;;;;3.23;2.90;;;7.60;99.90;6.80;98373;;;;588308;240;24047;-76
2023/10/27 07:17:52;;;;;;;2.83;2.53;;;7.60;99.90;6.80;98375;;;;588126;240;24080;-79
2023/10/27 07:20:20;;;;;;;4.53;3.43;;;7.70;99.90;6.90;98376;;;;587873;240;24097;-77
2023/10/27 07:22:52;;;;;;;3.90;2.97;;;7.70;99.90;6.90;98370;;;;587753;240;24117;-77
2023/10/27 07:25:17;;;;;;;3.10;2.80;;;7.70;99.90;7.00;98367;;;;587402;240;24037;-78
2023/10/27 07:27:46;;;;;;;3.93;3.53;;;7.80;99.90;7.00;98360;;;;587673;240;24025;-78
2023/10/27 07:30:15;;;;;;;3.70;2.80;;;7.80;99.90;7.10;98361;;;;588099;240;24032;-76
2023/10/27 07:32:43;;;;;;;3.47;2.97;;;7.90;99.90;7.10;98360;;;;587542;240;24062;-77
2023/10/27 07:35:10;;;;;;;4.03;3.10;;;7.90;99.90;7.20;98360;;;;587542;240;24129;-79
2023/10/27 07:37:38;;;;;;;3.37;2.40;;;8.00;99.90;7.20;98354;;;;587561;240;24062;-78
2023/10/27 07:40:06;;;;;;;3.30;3.00;;;8.10;99.90;7.20;98357;;;;587247;240;24029;-77
2023/10/27 07:42:34;;;;;;;3.20;2.87;;;8.00;99.90;7.30;98356;;;;586108;240;24026;-78
2023/10/27 07:45:04;;;;;;;3.60;3.07;;;8.10;99.90;7.30;98352;;;;587629;240;24069;-81
2023/10/27 07:47:31;;;;;;;3.23;2.93;;;8.20;99.90;7.50;98350;;;;587164;240;24059;-77
2023/10/27 07:50:00;;;;;;;12.63;7.13;;;8.20;99.90;7.50;98345;;;;587396;240;24067;-80
2023/10/27 07:52:27;;;;;;;12.43;6.67;;;8.30;99.90;7.60;98353;;;;587175;240;24040;-78
2023/10/27 07:54:54;;;;;;;14.40;7.17;;;8.40;99.90;7.70;98341;;;;587277;240;24052;-77
2023/10/27 07:57:25;;;;;;;15.03;7.30;;;8.50;99.90;7.80;98345;;;;587287;240;24120;-78
2023/10/27 07:59:51;;;;;;;14.97;8.70;;;8.60;99.90;7.90;98347;;;;587509;240;24038;-77
2023/10/27 08:02:19;;;;;;;10.43;6.80;;;8.70;99.90;8.00;98354;;;;587376;240;24063;-78
2023/10/27 08:04:47;;;;;;;8.00;5.73;;;8.80;99.90;8.00;98347;;;;588259;240;24025;-82
2023/10/27 08:07:15;;;;;;;7.33;5.40;;;8.80;99.90;8.00;98347;;;;588227;240;24043;-76
2023/10/27 08:09:52;;;;;;;7.57;4.13;;;8.80;99.90;8.00;98355;;;;588000;240;24076;-79
2023/10/27 08:12:20;;;;;;;4.40;3.33;;;8.80;99.90;7.90;98359;;;;588256;239;24070;-78
2023/10/27 08:14:44;;;;;;;4.13;3.40;;;8.70;99.90;7.80;98355;;;;584547;239;24096;-85
2023/10/27 08:17:12;;;;;;;4.77;2.93;;;8.60;99.90;7.70;98356;;;;589474;240;24055;-82
2023/10/27 08:19:41;;;;;;;7.63;3.40;;;8.50;99.90;7.70;98351;;;;574514;249;24111;-77
2023/10/27 08:22:09;;;;;;;4.00;3.57;;;8.50;99.90;7.70;98347;;;;562060;251;24104;-78
2023/10/27 08:24:39;;;;;;;3.27;2.77;;;8.50;99.90;7.70;98359;;;;561593;249;24100;-83
2023/10/27 08:27:07;;;;;;;2.40;2.20;;;8.20;99.90;7.70;98349;;;;575479;246;24073;-82
2023/10/27 08:29:39;;;;;;;2.90;2.70;;;8.50;99.90;7.70;98350;;;;559943;250;35333;-84
2023/10/27 08:32:07;;;;;;;2.83;2.40;;;8.40;99.90;7.60;98366;;;;575562;246;24072;-79
2023/10/27 08:34:37;;;;;;;2.17;1.97;;;8.40;99.90;7.60;98361;;;;575379;245;24068;-83
2023/10/27 08:37:05;;;;;;;2.07;1.90;;;8.40;99.90;7.60;98361;;;;564774;251;24111;-83
2023/10/27 08:39:38;;;;;;;1.53;1.43;;;8.40;99.90;7.60;98362;;;;575232;246;24074;-81
2023/10/27 08:42:07;;;;;;;1.27;1.17;;;8.40;99.90;7.60;98358;;;;564976;251;24110;-79
2023/10/27 08:44:37;;;;;;;1.20;1.20;;;8.30;99.90;7.50;98366;;;;572758;249;24106;-80
2023/10/27 08:47:06;;;;;;;3.23;1.63;;;8.30;99.90;7.50;98364;;;;583734;246;24094;-77
2023/10/27 08:49:33;;;;;;;3.03;1.57;;;8.30;99.90;7.50;98362;;;;563658;251;24117;-81
2023/10/27 08:52:02;;;;;;;1.33;1.23;;;8.30;99.90;7.50;98369;;;;560329;251;24099;-80
2023/10/27 08:54:30;;;;;;;1.50;1.40;;;8.30;99.90;7.50;98376;;;;572245;251;24099;-83
2023/10/27 08:56:55;;;;;;;1.30;1.20;;;8.30;99.90;7.60;98367;;;;564110;251;25177;-82
2023/10/27 08:59:26;;;;;;;1.60;1.50;;;8.30;99.90;7.70;98364;;;;560245;249;24107;-77
2023/10/27 09:01:51;;;;;;;2.47;2.27;;;8.40;99.90;7.80;98355;;;;570295;249;24105;-81
2023/10/27 09:04:20;;;;;;;2.60;2.37;;;8.70;99.90;7.90;98371;;;;564137;251;24104;-81
2023/10/27 09:06:50;;;;;;;2.30;2.20;;;8.70;99.90;8.00;98362;;;;574722;246;24098;-81
2023/10/27 09:09:22;;;;;;;3.43;2.60;;;8.80;99.90;8.20;98360;;;;561419;250;24086;-81
2023/10/27 09:11:48;;;;;;;2.53;2.20;;;8.90;99.90;8.40;98364;;;;570326;246;24070;-82
2023/10/27 09:14:30;;;;;;;2.10;1.50;;;9.20;99.90;8.50;98371;;;;561385;251;24075;-77
2023/10/27 09:17:10;;;;;;;4.63;2.40;;;9.30;99.90;8.60;98376;;;;575665;246;24117;-79
2023/10/27 09:19:44;;;;;;;1.10;1.00;;;9.40;99.90;8.60;98375;;;;573583;251;24113;-78
2023/10/27 09:22:21;;;;;;;1.50;1.47;;;9.50;99.90;8.80;98369;;;;584033;244;24074;-81
2023/10/27 09:24:46;;;;;;;1.47;1.37;;;9.60;99.90;8.80;98361;;;;565672;250;24151;-77
2023/10/27 09:27:13;;;;;;;1.83;0.83;;;9.60;99.90;8.80;98365;;;;572543;248;24094;-82
2023/10/27 09:29:42;;;;;;;1.63;1.50;;;10.00;99.90;8.80;98367;;;;565629;248;24177;-82
2023/10/27 09:32:27;;;;;;;1.80;0.87;;;9.70;99.90;8.90;98360;;;;571019;246;24084;-83
2023/10/27 09:35:13;;;;;;;2.30;0.90;;;9.80;99.90;9.00;98354;;;;561502;251;24277;-85
2023/10/27 09:37:46;;;;;;;1.57;1.47;;;9.80;99.90;9.00;98357;;;;573393;246;24065;-83
2023/10/27 09:40:12;;;;;;;1.33;1.23;;;9.90;99.90;9.00;98367;;;;563973;251;24112;-83
2023/10/27 09:42:42;;;;;;;1.60;1.50;;;9.90;99.90;9.00;98354;;;;569680;252;24087;-87
2023/10/27 09:45:11;;;;;;;1.20;1.20;;;9.90;99.90;9.10;98360;;;;574360;246;24096;-87
2023/10/27 09:47:51;;;;;;;2.73;1.70;;;10.10;99.90;9.20;98367;;;;573937;246;24085;-82
2023/10/27 09:50:21;;;;;;;2.00;1.73;;;10.10;99.90;9.40;98380;;;;576779;248;24167;-83
2023/10/27 09:52:46;;;;;;;2.13;1.93;;;10.20;99.90;9.50;98367;;;;572923;250;24188;-85
2023/10/27 09:55:17;;;;;;;1.67;1.57;;;10.30;99.90;9.60;98376;;;;572529;251;24122;-83
2023/10/27 09:57:46;;;;;;;4.97;2.17;;;10.50;99.90;9.70;98382;;;;567834;251;24113;-81
2023/10/27 10:00:13;;;;;;;1.83;1.67;;;10.50;99.90;9.80;98369;;;;572273;250;24104;-82
2023/10/27 10:02:39;;;;;;;1.20;1.20;;;10.70;99.90;9.80;98366;;;;559530;252;24105;-84
2023/10/27 10:05:10;;;;;;;1.73;1.33;;;10.70;99.90;9.90;98365;;;;574044;246;24114;-84
2023/10/27 10:07:44;;;;;;;2.13;1.20;;;10.70;99.90;9.90;98365;;;;574078;246;24160;-77
2023/10/27 10:10:37;;;;;;;1.50;1.40;;;10.80;99.90;10.10;98363;;;;573496;246;24084;-79
2023/10/27 10:13:12;;;;;;;3.77;1.20;;;11.00;99.90;10.20;98369;;;;566586;248;24109;-76
2023/10/27 10:15:38;;;;;;;1.20;1.10;;;11.10;99.90;10.20;98365;;;;574584;246;24095;-85
2023/10/27 10:18:06;;;;;;;1.67;1.10;;;11.10;99.90;10.10;98363;;;;580426;245;24178;-77
2023/10/27 10:20:50;;;;;;;1.40;0.90;;;11.10;99.90;10.00;98356;;;;579007;246;24082;-81
2023/10/27 10:23:17;;;;;;;0.80;0.80;;;11.00;99.90;10.00;98345;;;;574328;246;24064;-81
2023/10/27 10:25:57;;;;;;;1.30;1.30;;;10.90;99.90;10.00;98347;;;;574513;246;24118;-78
2023/10/27 10:28:28;;;;;;;2.47;1.00;;;10.90;99.90;10.00;98342;;;;574652;246;24152;-80
2023/10/27 10:31:07;;;;;;;4.17;1.40;;;10.90;99.90;10.00;98337;;;;570667;246;24112;-79
2023/10/27 10:33:35;;;;;;;1.67;1.00;;;10.90;99.90;10.00;98335;;;;574630;245;24252;-76
2023/10/27 10:36:14;;;;;;;1.80;1.00;;;10.90;99.90;10.00;98347;;;;575599;245;24122;-78
2023/10/27 10:38:44;;;;;;;1.37;0.97;;;10.90;99.90;10.10;98344;;;;575786;246;24061;-76
2023/10/27 10:41:08;;;;;;;0.77;0.77;;;10.90;99.90;10.10;98338;;;;575120;246;24068;-77
2023/10/27 10:43:42;;;;;;;1.20;1.10;;;10.90;99.90;10.10;98344;;;;582267;244;24118;-78
2023/10/27 10:46:10;;;;;;;0.90;0.90;;;11.00;99.90;10.30;98360;;;;581475;246;24084;-76
2023/10/27 10:48:37;;;;;;;4.60;0.93;;;11.10;99.90;10.30;98355;;;;583399;246;24108;-79
2023/10/27 10:51:05;;;;;;;0.93;0.93;;;11.20;99.90;10.10;98351;;;;576073;246;24171;-78
2023/10/27 10:53:33;;;;;;;7.90;3.70;;;11.10;99.90;10.00;98350;;;;571197;245;42132;-82
2023/10/27 10:56:00;;;;;;;1.67;1.37;;;10.90;99.90;9.90;98357;;;;574858;246;46061;-77
2023/10/27 10:58:29;;;;;;;1.80;1.47;;;10.80;99.90;9.90;98359;;;;575850;246;24100;-78
2023/10/27 11:00:57;;;;;;;2.20;0.67;;;10.70;99.90;9.90;98350;;;;570850;246;24064;-76
2023/10/27 11:03:25;;;;;;;1.10;0.40;;;10.80;99.90;9.90;98353;;;;581891;242;24096;-85
2023/10/27 11:05:57;;;;;;;0.30;0.30;;;10.80;99.90;10.00;98349;;;;584408;244;24179;-81
2023/10/27 11:08:28;;;;;;;1.13;0.80;;;10.80;99.90;10.00;98357;;;;575680;246;24088;-82
2023/10/27 11:11:05;;;;;;;0.70;0.70;;;10.80;99.90;10.00;98353;;;;583744;246;24073;-84
2023/10/27 11:13:33;;;;;;;1.13;0.40;;;10.80;99.90;9.80;98353;;;;574683;245;24056;-82
2023/10/27 11:16:01;;;;;;;0.67;0.27;;;10.70;99.90;9.60;98354;;;;574958;246;24079;-82
2023/10/27 11:18:29;;;;;;;0.20;0.20;;;10.50;99.90;9.40;98344;;;;582114;242;24215;-82
2023/10/27 11:20:57;;;;;;;0.40;0.40;;;10.20;99.90;9.20;98341;;;;571541;246;24160;-82
2023/10/27 11:23:30;;;;;;;0.47;0.47;;;10.10;99.90;9.10;98341;;;;581983;245;24174;-82
2023/10/27 11:26:04;;;;;;;0.50;0.40;;;9.90;99.90;9.00;98340;;;;575058;246;24162;-82
2023/10/27 11:28:32;;;;;;;0.33;0.30;;;9.80;99.90;8.90;98336;;;;581275;246;24092;-80
2023/10/27 11:31:11;;;;;;;0.57;0.30;;;9.70;99.90;8.90;98336;;;;580713;246;24097;-78
2023/10/27 11:33:33;;;;;;;0.50;0.50;;;9.70;99.90;8.80;98340;;;;581136;246;24164;-80
2023/10/27 11:36:01;;;;;;;0.67;0.67;;;9.70;99.90;8.70;98334;;;;575496;246;24075;-83
2023/10/27 11:38:35;;;;;;;2.10;0.70;;;9.50;99.90;8.50;98335;;;;575391;245;24091;-80